createdAt,value
2019-05-26T00:01:33.614Z,27.77
2019-05-26T00:04:00.433Z,24.77
2019-05-26T00:06:27.166Z,29.93
2019-05-26T00:08:54.524Z,19.83
2019-05-26T00:11:21.305Z,24.83
2019-05-26T00:13:48.094Z,22.63
2019-05-26T00:16:14.951Z,30.40
2019-05-26T00:18:41.682Z,27.43
2019-05-26T00:21:08.427Z,24.50
2019-05-26T00:23:35.280Z,26.07
2019-05-26T00:26:02.002Z,22.70
2019-05-26T00:28:28.729Z,25.43
2019-05-26T00:30:55.999Z,24.30
2019-05-26T00:33:22.720Z,26.03
2019-05-26T00:35:49.461Z,27.43
2019-05-26T00:38:16.198Z,22.47
2019-05-26T00:40:42.903Z,26.60
2019-05-26T00:43:09.681Z,26.83
2019-05-26T00:45:36.533Z,32.57
2019-05-26T00:48:03.372Z,25.03
2019-05-26T00:50:30.213Z,26.27
2019-05-26T00:52:57.127Z,28.83
2019-05-26T00:55:23.897Z,26.20
2019-05-26T00:57:50.742Z,29.47
2019-05-26T01:00:18.289Z,24.40
2019-05-26T01:02:45.029Z,26.07
2019-05-26T01:05:11.765Z,27.00
2019-05-26T01:07:38.622Z,28.67
2019-05-26T01:10:05.357Z,30.53
2019-05-26T01:12:32.199Z,35.03
2019-05-26T01:14:59.452Z,30.00
2019-05-26T01:17:26.182Z,28.60
2019-05-26T01:19:52.928Z,28.40
2019-05-26T01:22:19.758Z,27.17
2019-05-26T01:24:46.510Z,27.43
2019-05-26T01:27:13.350Z,28.43
2019-05-26T01:29:40.192Z,25.33
2019-05-26T01:32:07.057Z,29.23
2019-05-26T01:34:33.772Z,33.17
2019-05-26T01:37:00.615Z,29.87
2019-05-26T01:39:27.357Z,25.93
2019-05-26T01:41:54.091Z,23.77
2019-05-26T01:44:20.943Z,28.93
2019-05-26T01:46:47.783Z,25.77
2019-05-26T01:49:14.618Z,28.70
2019-05-26T01:51:41.449Z,27.37
2019-05-26T01:54:08.310Z,30.10
2019-05-26T01:56:35.036Z,28.30
2019-05-26T01:59:01.888Z,30.27
2019-05-26T02:01:28.628Z,28.97
2019-05-26T02:03:55.469Z,29.40
2019-05-26T02:06:22.309Z,35.17
2019-05-26T02:08:49.002Z,37.93
2019-05-26T02:11:15.789Z,37.30
2019-05-26T02:13:42.626Z,23.73
2019-05-26T02:16:09.366Z,34.17
2019-05-26T02:18:36.222Z,36.47
2019-05-26T02:21:03.039Z,31.87
2019-05-26T02:23:29.894Z,32.30
2019-05-26T02:25:56.586Z,27.83
2019-05-26T02:28:23.463Z,33.40
2019-05-26T02:30:50.203Z,31.87
2019-05-26T02:33:16.903Z,30.27
2019-05-26T02:35:43.798Z,28.03
2019-05-26T02:38:10.522Z,28.57
2019-05-26T02:40:37.301Z,34.33
2019-05-26T02:43:04.408Z,31.00
2019-05-26T02:45:31.165Z,29.33
2019-05-26T02:47:57.937Z,27.20
2019-05-26T02:50:24.837Z,32.07
2019-05-26T02:52:51.581Z,30.03
2019-05-26T02:55:18.432Z,26.13
2019-05-26T02:57:45.257Z,29.47
2019-05-26T03:00:12.015Z,31.93
2019-05-26T03:02:38.735Z,27.67
2019-05-26T03:05:05.575Z,27.37
2019-05-26T03:07:32.334Z,29.27
2019-05-26T03:09:59.165Z,27.10
2019-05-26T03:12:26.015Z,29.03
2019-05-26T03:14:52.854Z,28.00
2019-05-26T03:17:19.577Z,27.90
2019-05-26T03:19:46.705Z,27.70
2019-05-26T03:22:13.477Z,28.63
2019-05-26T03:24:40.204Z,29.63
2019-05-26T03:27:07.049Z,28.30
2019-05-26T03:29:33.786Z,25.33
2019-05-26T03:32:00.529Z,29.93
2019-05-26T03:34:27.309Z,31.50
2019-05-26T03:36:54.134Z,32.77
2019-05-26T03:39:39.604Z,26.07
2019-05-26T03:41:49.287Z,24.07
2019-05-26T03:44:16.075Z,23.70
2019-05-26T03:46:42.772Z,26.10
2019-05-26T03:49:09.585Z,30.80
2019-05-26T03:51:36.287Z,27.23
2019-05-26T03:54:03.024Z,29.83
2019-05-26T03:56:29.868Z,30.37
2019-05-26T03:58:56.608Z,27.07
2019-05-26T04:01:23.349Z,28.30
2019-05-26T04:03:50.203Z,29.67
2019-05-26T04:06:16.936Z,28.23
2019-05-26T04:08:43.672Z,24.90
2019-05-26T04:11:10.518Z,27.13
2019-05-26T04:13:37.252Z,31.00
2019-05-26T04:16:04.086Z,21.07
2019-05-26T04:18:31.249Z,31.97
2019-05-26T04:20:57.977Z,27.00
2019-05-26T04:23:24.715Z,25.20
2019-05-26T04:25:52.078Z,28.23
2019-05-26T04:28:18.818Z,22.90
2019-05-26T04:30:45.545Z,32.23
2019-05-26T04:33:12.402Z,27.37
2019-05-26T04:35:39.133Z,24.00
2019-05-26T04:38:05.867Z,26.53
2019-05-26T04:40:32.910Z,28.43
2019-05-26T04:42:59.653Z,26.43
2019-05-26T04:45:26.404Z,30.90
2019-05-26T04:47:53.359Z,32.27
2019-05-26T04:50:20.077Z,25.60
2019-05-26T04:53:04.470Z,25.80
2019-05-26T04:55:15.292Z,26.73
2019-05-26T04:57:42.031Z,24.90
2019-05-26T05:00:08.875Z,28.43
2019-05-26T05:02:35.681Z,27.33
2019-05-26T05:05:02.464Z,25.43
2019-05-26T05:07:29.318Z,31.17
2019-05-26T05:09:56.146Z,28.37
2019-05-26T05:12:22.989Z,30.23
2019-05-26T05:14:49.830Z,29.93
2019-05-26T05:17:16.671Z,29.40
2019-05-26T05:19:43.371Z,30.60
2019-05-26T05:22:10.143Z,29.03
2019-05-26T05:24:36.984Z,33.07
2019-05-26T05:27:03.755Z,30.13
2019-05-26T05:29:30.680Z,37.13
2019-05-26T05:31:57.512Z,32.20
2019-05-26T05:34:24.251Z,31.67
2019-05-26T05:36:50.986Z,35.43
2019-05-26T05:39:17.841Z,36.47
2019-05-26T05:41:44.678Z,37.77
2019-05-26T05:44:11.409Z,36.40
2019-05-26T05:46:38.204Z,38.27
2019-05-26T05:49:04.992Z,33.83
2019-05-26T05:51:31.741Z,41.10
2019-05-26T05:53:58.582Z,35.23
2019-05-26T05:56:25.308Z,33.17
2019-05-26T05:58:52.059Z,36.33
2019-05-26T06:01:18.904Z,34.10
2019-05-26T06:03:45.644Z,44.70
2019-05-26T06:06:12.373Z,35.83
2019-05-26T06:08:39.212Z,32.57
2019-05-26T06:11:15.950Z,34.73
2019-05-26T06:13:34.443Z,33.97
2019-05-26T06:16:01.287Z,30.77
2019-05-26T06:18:28.016Z,26.07
2019-05-26T06:20:54.753Z,28.87
2019-05-26T06:23:21.601Z,31.47
2019-05-26T06:25:48.330Z,33.60
2019-05-26T06:28:15.071Z,28.02
2019-05-26T06:30:42.319Z,30.67
2019-05-26T06:33:09.070Z,26.30
2019-05-26T06:35:35.801Z,28.25
2019-05-26T06:38:02.652Z,25.17
2019-05-26T06:40:29.495Z,27.42
2019-05-26T06:42:56.196Z,22.02
2019-05-26T06:45:23.079Z,25.97
2019-05-26T06:47:49.804Z,25.80
2019-05-26T06:50:16.543Z,29.92
2019-05-26T06:52:43.400Z,24.67
2019-05-26T06:55:10.235Z,27.75
2019-05-26T06:57:36.984Z,20.82
2019-05-26T07:00:03.824Z,23.02
2019-05-26T07:02:30.664Z,26.93
2019-05-26T07:04:57.388Z,22.27
2019-05-26T07:07:24.240Z,24.98
2019-05-26T07:09:51.084Z,23.52
2019-05-26T07:12:17.800Z,23.60
2019-05-26T07:14:44.668Z,24.25
2019-05-26T07:17:11.414Z,21.87
2019-05-26T07:19:38.133Z,24.40
2019-05-26T07:22:05.323Z,25.50
2019-05-26T07:24:32.241Z,23.50
2019-05-26T07:26:59.103Z,27.50
2019-05-26T07:29:26.426Z,28.07
2019-05-26T07:31:53.890Z,23.35
2019-05-26T07:34:20.768Z,23.30
2019-05-26T07:36:47.979Z,19.85
2019-05-26T07:39:14.847Z,18.85
2019-05-26T07:41:41.662Z,19.42
2019-05-26T07:44:08.535Z,19.27
2019-05-26T07:46:35.333Z,15.60
2019-05-26T07:49:02.073Z,14.58
2019-05-26T07:51:28.863Z,12.75
2019-05-26T07:53:56.321Z,15.32
2019-05-26T07:56:23.111Z,19.45
2019-05-26T07:58:49.964Z,17.32
2019-05-26T08:01:16.695Z,18.07
2019-05-26T08:03:43.543Z,18.77
2019-05-26T08:06:10.381Z,17.98
2019-05-26T08:08:37.117Z,18.90
2019-05-26T08:11:03.857Z,19.57
2019-05-26T08:13:31.106Z,14.00
2019-05-26T08:15:57.859Z,14.13
2019-05-26T08:18:24.726Z,17.95
2019-05-26T08:20:51.751Z,15.10
2019-05-26T08:23:18.590Z,14.83
2019-05-26T08:25:45.433Z,14.60
2019-05-26T08:28:12.268Z,14.33
2019-05-26T08:30:39.108Z,17.62
2019-05-26T08:33:05.952Z,15.23
2019-05-26T08:35:32.781Z,11.08
2019-05-26T08:37:59.489Z,15.83
2019-05-26T08:40:26.270Z,14.60
2019-05-26T08:42:53.102Z,12.58
2019-05-26T08:45:21.718Z,16.48
2019-05-26T08:47:48.220Z,10.68
2019-05-26T08:50:15.292Z,9.73
2019-05-26T08:52:42.111Z,9.10
2019-05-26T08:55:08.960Z,9.70
2019-05-26T08:57:35.741Z,8.65
2019-05-26T09:00:02.531Z,8.13
2019-05-26T09:02:29.279Z,10.85
2019-05-26T09:04:56.122Z,12.98
2019-05-26T09:07:22.962Z,11.15
2019-05-26T09:09:49.796Z,9.50
2019-05-26T09:12:16.641Z,9.48
2019-05-26T09:14:43.386Z,8.88
2019-05-26T09:17:10.228Z,9.48
2019-05-26T09:19:37.071Z,11.00
2019-05-26T09:22:03.796Z,7.75
2019-05-26T09:24:30.547Z,9.83
2019-05-26T09:26:57.399Z,14.85
2019-05-26T09:29:24.131Z,8.43
2019-05-26T09:31:50.857Z,8.53
2019-05-26T09:34:17.747Z,8.30
2019-05-26T09:36:44.649Z,9.50
2019-05-26T09:39:11.381Z,8.98
2019-05-26T09:41:38.238Z,8.38
2019-05-26T09:44:05.076Z,7.55
2019-05-26T09:46:31.803Z,9.10
2019-05-26T09:49:00.924Z,7.78
2019-05-26T09:51:27.138Z,10.60
2019-05-26T09:54:01.625Z,9.00
2019-05-26T09:56:22.360Z,7.75
2019-05-26T09:58:49.086Z,7.45
2019-05-26T10:01:15.822Z,7.90
2019-05-26T10:03:42.687Z,7.97
2019-05-26T10:06:09.521Z,11.80
2019-05-26T10:08:36.274Z,7.62
2019-05-26T10:11:03.109Z,7.60
2019-05-26T10:13:31.957Z,8.55
2019-05-26T10:15:58.435Z,9.00
2019-05-26T10:18:25.265Z,7.67
2019-05-26T10:20:52.323Z,10.65
2019-05-26T10:23:19.638Z,6.65
2019-05-26T10:25:46.448Z,9.10
2019-05-26T10:28:13.247Z,8.15
2019-05-26T10:30:40.086Z,7.17
2019-05-26T10:33:06.929Z,7.28
2019-05-26T10:35:33.758Z,7.30
2019-05-26T10:38:00.507Z,6.30
2019-05-26T10:40:27.343Z,9.73
2019-05-26T10:42:54.073Z,7.42
2019-05-26T10:45:20.828Z,11.53
2019-05-26T10:47:47.817Z,6.05
2019-05-26T10:50:14.606Z,6.65
2019-05-26T10:52:41.617Z,8.30
2019-05-26T10:55:08.826Z,6.75
2019-05-26T10:57:35.855Z,8.73
2019-05-26T11:00:02.552Z,6.83
2019-05-26T11:02:29.421Z,9.60
2019-05-26T11:04:56.274Z,10.48
2019-05-26T11:07:23.119Z,6.47
2019-05-26T11:09:49.949Z,8.18
2019-05-26T11:12:16.686Z,6.22
2019-05-26T11:14:43.425Z,5.97
2019-05-26T11:17:10.812Z,8.98
2019-05-26T11:19:37.634Z,5.12
2019-05-26T11:22:04.480Z,4.85
2019-05-26T11:24:31.339Z,9.75
2019-05-26T11:27:08.387Z,5.90
2019-05-26T11:29:26.639Z,5.75
2019-05-26T11:31:53.495Z,4.90
2019-05-26T11:34:20.385Z,11.68
2019-05-26T11:36:47.162Z,4.67
2019-05-26T11:39:14.010Z,4.20
2019-05-26T11:41:40.937Z,4.45
2019-05-26T11:44:17.384Z,5.35
2019-05-26T11:46:36.262Z,5.33
2019-05-26T11:49:02.999Z,6.67
2019-05-26T11:51:29.737Z,5.75
2019-05-26T11:53:56.580Z,12.88
2019-05-26T11:56:23.319Z,4.70
2019-05-26T11:58:50.068Z,4.42
2019-05-26T12:01:16.904Z,5.03
2019-05-26T12:03:43.645Z,4.85
2019-05-26T12:06:10.393Z,4.85
2019-05-26T12:08:37.218Z,5.72
2019-05-26T12:11:03.964Z,4.72
2019-05-26T12:13:30.810Z,6.05
2019-05-26T12:15:57.640Z,5.62
2019-05-26T12:18:24.397Z,5.97
2019-05-26T12:20:51.119Z,5.62
2019-05-26T12:23:17.973Z,4.47
2019-05-26T12:25:44.708Z,4.25
2019-05-26T12:28:11.556Z,5.22
2019-05-26T12:30:38.394Z,5.10
2019-05-26T12:33:05.238Z,4.28
2019-05-26T12:35:31.964Z,4.70
2019-05-26T12:37:58.839Z,3.90
2019-05-26T12:40:25.551Z,5.42
2019-05-26T12:42:52.296Z,4.20
2019-05-26T12:45:19.139Z,4.67
2019-05-26T12:47:45.986Z,6.05
2019-05-26T12:50:12.818Z,4.35
2019-05-26T12:52:39.601Z,3.80
2019-05-26T12:55:08.949Z,3.98
2019-05-26T12:57:34.767Z,4.80
2019-05-26T13:00:01.665Z,3.98
2019-05-26T13:02:28.670Z,4.37
2019-05-26T13:04:55.397Z,3.67
2019-05-26T13:07:22.243Z,4.58
2019-05-26T13:09:49.101Z,3.95
2019-05-26T13:12:15.852Z,3.42
2019-05-26T13:14:43.391Z,5.58
2019-05-26T13:17:10.114Z,3.80
2019-05-26T13:19:36.867Z,3.52
2019-05-26T13:22:03.621Z,4.20
2019-05-26T13:24:30.342Z,3.77
2019-05-26T13:26:57.073Z,4.50
2019-05-26T13:29:25.851Z,8.10
2019-05-26T13:31:52.404Z,4.15
2019-05-26T13:34:19.135Z,3.92
2019-05-26T13:36:45.986Z,3.42
2019-05-26T13:39:12.725Z,3.70
2019-05-26T13:41:39.453Z,4.45
2019-05-26T13:44:06.298Z,3.72
2019-05-26T13:46:33.149Z,4.47
2019-05-26T13:48:59.991Z,4.97
2019-05-26T13:51:27.108Z,4.72
2019-05-26T13:53:53.879Z,6.50
2019-05-26T13:56:20.628Z,6.87
2019-05-26T13:58:47.407Z,5.00
2019-05-26T14:01:14.200Z,3.85
2019-05-26T14:03:41.041Z,4.40
2019-05-26T14:06:07.890Z,5.60
2019-05-26T14:08:34.925Z,4.80
2019-05-26T14:11:02.087Z,3.37
2019-05-26T14:13:28.978Z,6.58
2019-05-26T14:15:56.056Z,5.10
2019-05-26T14:18:23.324Z,3.52
2019-05-26T14:20:50.148Z,3.22
2019-05-26T14:23:17.004Z,3.80
2019-05-26T14:25:43.734Z,5.92
2019-05-26T14:28:10.618Z,3.10
2019-05-26T14:30:37.726Z,5.05
2019-05-26T14:33:04.579Z,5.30
2019-05-26T14:35:31.637Z,8.40
2019-05-26T14:37:58.463Z,4.20
2019-05-26T14:40:25.301Z,3.50
2019-05-26T14:42:52.196Z,4.20
2019-05-26T14:45:18.988Z,3.90
2019-05-26T14:47:45.827Z,6.12
2019-05-26T14:50:12.675Z,5.70
2019-05-26T14:52:39.363Z,6.15
2019-05-26T14:55:06.159Z,3.80
2019-05-26T14:57:32.991Z,2.87
2019-05-26T14:59:59.777Z,6.97
2019-05-26T15:02:26.873Z,3.27
2019-05-26T15:04:53.706Z,4.00
2019-05-26T15:07:20.560Z,5.97
2019-05-26T15:09:47.299Z,4.92
2019-05-26T15:12:14.347Z,4.78
2019-05-26T15:14:41.075Z,5.08
2019-05-26T15:17:07.829Z,5.53
2019-05-26T15:19:34.730Z,3.27
2019-05-26T15:22:01.612Z,4.92
2019-05-26T15:24:28.351Z,3.75
2019-05-26T15:26:55.180Z,4.37
2019-05-26T15:29:21.948Z,4.35
2019-05-26T15:31:48.661Z,3.67
2019-05-26T15:34:15.498Z,4.47
2019-05-26T15:36:42.144Z,3.52
2019-05-26T15:39:08.888Z,2.92
2019-05-26T15:41:35.720Z,3.05
2019-05-26T15:44:02.433Z,5.75
2019-05-26T15:46:29.163Z,3.17
2019-05-26T15:48:56.041Z,4.10
2019-05-26T15:51:22.782Z,4.50
2019-05-26T15:53:49.526Z,3.00
2019-05-26T15:56:16.370Z,4.45
2019-05-26T15:58:43.404Z,3.17
2019-05-26T16:01:10.153Z,4.00
2019-05-26T16:03:37.001Z,4.12
2019-05-26T16:06:03.857Z,4.78
2019-05-26T16:08:31.481Z,5.50
2019-05-26T16:10:58.332Z,5.53
2019-05-26T16:13:25.090Z,4.00
2019-05-26T16:15:51.809Z,4.80
2019-05-26T16:18:18.714Z,6.00
2019-05-26T16:20:45.624Z,4.00
2019-05-26T16:23:12.437Z,3.45
2019-05-26T16:25:39.290Z,3.33
2019-05-26T16:28:06.027Z,4.05
2019-05-26T16:30:32.770Z,4.70
2019-05-26T16:33:00.287Z,3.75
2019-05-26T16:35:27.069Z,6.53
2019-05-26T16:37:53.794Z,6.33
2019-05-26T16:40:20.648Z,5.92
2019-05-26T16:42:47.373Z,6.37
2019-05-26T16:45:14.134Z,4.97
2019-05-26T16:47:41.132Z,3.58
2019-05-26T16:50:07.810Z,4.08
2019-05-26T16:52:34.647Z,5.33
2019-05-26T16:55:01.891Z,7.17
2019-05-26T16:57:28.628Z,4.58
2019-05-26T16:59:55.481Z,5.35
2019-05-26T17:02:22.316Z,4.42
2019-05-26T17:04:49.167Z,4.70
2019-05-26T17:07:16.006Z,4.40
2019-05-26T17:09:42.853Z,6.10
2019-05-26T17:12:09.576Z,6.70
2019-05-26T17:14:36.341Z,5.85
2019-05-26T17:17:14.246Z,4.58
2019-05-26T17:19:31.536Z,6.35
2019-05-26T17:21:58.275Z,6.65
2019-05-26T17:24:25.531Z,5.03
2019-05-26T17:26:52.400Z,5.60
2019-05-26T17:29:19.117Z,5.20
2019-05-26T17:31:45.860Z,4.67
2019-05-26T17:34:12.600Z,5.72
2019-05-26T17:36:39.766Z,4.83
2019-05-26T17:39:07.798Z,4.75
2019-05-26T17:41:35.059Z,8.03
2019-05-26T17:44:01.794Z,4.50
2019-05-26T17:46:29.055Z,9.00
2019-05-26T17:48:55.910Z,5.72
2019-05-26T17:51:22.732Z,4.65
2019-05-26T17:53:49.782Z,4.67
2019-05-26T17:56:16.515Z,7.00
2019-05-26T17:58:43.570Z,8.70
2019-05-26T18:01:10.557Z,4.22
2019-05-26T18:03:37.241Z,4.65
2019-05-26T18:06:04.159Z,5.90
2019-05-26T18:08:31.419Z,4.85
2019-05-26T18:10:58.213Z,3.67
2019-05-26T18:13:25.239Z,4.85
2019-05-26T18:15:52.140Z,10.53
2019-05-26T18:18:18.907Z,4.87
2019-05-26T18:20:46.235Z,6.28
2019-05-26T18:23:13.014Z,5.90
2019-05-26T18:25:39.787Z,6.35
2019-05-26T18:28:06.715Z,6.12
2019-05-26T18:30:33.850Z,3.65
2019-05-26T18:33:00.687Z,4.10
2019-05-26T18:35:27.608Z,5.57
2019-05-26T18:37:54.578Z,5.08
2019-05-26T18:40:21.315Z,5.15
2019-05-26T18:42:48.157Z,4.37
2019-05-26T18:45:15.335Z,5.35
2019-05-26T18:47:42.198Z,8.88
2019-05-26T18:50:09.045Z,6.17
2019-05-26T18:52:35.936Z,5.80
2019-05-26T18:55:02.670Z,6.93
2019-05-26T18:57:29.664Z,6.03
2019-05-26T18:59:56.415Z,7.33
2019-05-26T19:02:23.196Z,5.53
2019-05-26T19:04:50.060Z,5.40
2019-05-26T19:07:16.980Z,6.30
2019-05-26T19:09:43.715Z,8.10
2019-05-26T19:12:10.572Z,6.50
2019-05-26T19:14:37.423Z,7.03
2019-05-26T19:17:04.232Z,6.97
2019-05-26T19:19:31.088Z,5.77
2019-05-26T19:21:57.922Z,6.63
2019-05-26T19:24:24.664Z,6.87
2019-05-26T19:26:51.361Z,6.17
2019-05-26T19:29:18.199Z,9.80
2019-05-26T19:31:44.974Z,7.37
2019-05-26T19:34:11.726Z,5.00
2019-05-26T19:36:38.682Z,7.17
2019-05-26T19:39:05.614Z,6.63
2019-05-26T19:41:33.071Z,8.63
2019-05-26T19:44:00.016Z,7.13
2019-05-26T19:46:26.857Z,12.73
2019-05-26T19:48:53.695Z,9.17
2019-05-26T19:51:20.526Z,5.77
2019-05-26T19:53:47.271Z,6.90
2019-05-26T19:56:14.125Z,12.77
2019-05-26T19:58:41.284Z,8.47
2019-05-26T20:01:08.110Z,11.90
2019-05-26T20:03:34.959Z,7.80
2019-05-26T20:06:01.795Z,10.87
2019-05-26T20:08:28.549Z,10.50
2019-05-26T20:10:56.125Z,6.87
2019-05-26T20:13:23.129Z,13.53
2019-05-26T20:15:49.980Z,7.77
2019-05-26T20:18:16.715Z,7.93
2019-05-26T20:20:43.567Z,8.43
2019-05-26T20:23:10.344Z,9.63
2019-05-26T20:25:37.130Z,7.73
2019-05-26T20:28:03.972Z,5.93
2019-05-26T20:30:30.716Z,13.47
2019-05-26T20:32:57.569Z,11.00
2019-05-26T20:35:24.403Z,7.83
2019-05-26T20:37:51.246Z,8.70
2019-05-26T20:40:17.985Z,6.97
2019-05-26T20:42:44.831Z,8.67
2019-05-26T20:45:11.677Z,16.03
2019-05-26T20:47:38.437Z,11.87
2019-05-26T20:50:05.263Z,9.33
2019-05-26T20:52:32.092Z,9.17
2019-05-26T20:55:00.602Z,8.97
2019-05-26T20:57:27.641Z,9.33
2019-05-26T20:59:54.529Z,8.40
2019-05-26T21:02:21.513Z,12.50
2019-05-26T21:04:48.333Z,10.77
2019-05-26T21:07:15.180Z,9.30
2019-05-26T21:09:42.056Z,8.87
2019-05-26T21:12:09.532Z,9.60
2019-05-26T21:14:36.348Z,11.60
2019-05-26T21:17:03.391Z,9.80
2019-05-26T21:19:30.445Z,12.07
2019-05-26T21:21:57.156Z,9.33
2019-05-26T21:24:24.003Z,15.70
2019-05-26T21:26:50.850Z,10.17
2019-05-26T21:29:17.579Z,10.73
2019-05-26T21:31:44.318Z,8.07
2019-05-26T21:34:11.355Z,10.43
2019-05-26T21:36:38.103Z,10.20
2019-05-26T21:39:04.956Z,11.67
2019-05-26T21:41:32.716Z,11.17
2019-05-26T21:43:59.568Z,7.30
2019-05-26T21:46:27.056Z,9.93
2019-05-26T21:48:54.114Z,10.70
2019-05-26T21:51:21.931Z,8.87
2019-05-26T21:53:49.141Z,7.50
2019-05-26T21:56:16.834Z,14.63
2019-05-26T21:58:44.347Z,13.53
2019-05-26T22:01:11.744Z,10.77
2019-05-26T22:03:39.615Z,10.90
2019-05-26T22:06:06.478Z,14.80
2019-05-26T22:08:33.411Z,14.33
2019-05-26T22:11:00.434Z,14.90
2019-05-26T22:13:27.485Z,10.77
2019-05-26T22:15:54.369Z,12.17
2019-05-26T22:18:21.400Z,13.67
2019-05-26T22:20:48.264Z,13.27
2019-05-26T22:23:15.075Z,12.77
2019-05-26T22:25:42.102Z,12.47
2019-05-26T22:28:09.374Z,11.63
2019-05-26T22:30:37.006Z,17.20
2019-05-26T22:33:03.974Z,12.33
2019-05-26T22:35:30.724Z,14.10
2019-05-26T22:37:57.556Z,14.43
2019-05-26T22:40:24.668Z,11.33
2019-05-26T22:42:51.542Z,17.50
2019-05-26T22:45:18.292Z,20.87
2019-05-26T22:47:45.108Z,18.73
2019-05-26T22:50:11.860Z,16.27
2019-05-26T22:52:38.643Z,24.30
2019-05-26T22:55:05.429Z,17.23
2019-05-26T22:57:32.175Z,21.70
2019-05-26T22:59:58.879Z,23.70
2019-05-26T23:02:25.761Z,14.70
2019-05-26T23:04:52.486Z,13.90
2019-05-26T23:07:19.227Z,11.10
2019-05-26T23:09:46.202Z,14.33
2019-05-26T23:12:15.428Z,9.63
2019-05-26T23:14:42.526Z,9.80
2019-05-26T23:17:09.360Z,10.77
2019-05-26T23:19:36.095Z,12.50
2019-05-26T23:22:02.739Z,12.70
2019-05-26T23:24:29.528Z,11.03
2019-05-26T23:26:56.633Z,10.97
2019-05-26T23:29:23.362Z,10.53
2019-05-26T23:31:50.213Z,13.57
2019-05-26T23:34:16.940Z,13.77
2019-05-26T23:36:44.398Z,9.93
2019-05-26T23:39:11.489Z,12.83
2019-05-26T23:41:38.926Z,9.90
2019-05-26T23:44:06.079Z,9.53
2019-05-26T23:46:33.127Z,12.50
2019-05-26T23:48:59.946Z,9.53
2019-05-26T23:51:26.893Z,14.67
2019-05-26T23:53:54.137Z,12.97
2019-05-26T23:56:20.875Z,12.10
2019-05-26T23:58:47.609Z,9.33
